sensor_id;sensor_type;location;lat;lon;timestamp;P1;durP1;ratioP1;P2;durP2;ratioP2
35562;SDS011;21665;40.108;18.302;2023-05-07T00:00:34;22.27;;;20.02;;
35562;SDS011;21665;40.108;18.302;2023-05-07T00:03:00;25.77;;;21.60;;
35562;SDS011;21665;40.108;18.302;2023-05-07T00:05:26;23.77;;;21.20;;
35562;SDS011;21665;40.108;18.302;2023-05-07T00:07:53;23.40;;;21.02;;
35562;SDS011;21665;40.108;18.302;2023-05-07T00:10:19;23.48;;;20.25;;
35562;SDS011;21665;40.108;18.302;2023-05-07T00:12:45;22.50;;;20.23;;
35562;SDS011;21665;40.108;18.302;2023-05-07T00:15:14;21.75;;;19.73;;
35562;SDS011;21665;40.108;18.302;2023-05-07T00:17:41;21.70;;;19.55;;
35562;SDS011;21665;40.108;18.302;2023-05-07T00:20:07;22.08;;;19.73;;
35562;SDS011;21665;40.108;18.302;2023-05-07T00:22:34;23.38;;;19.92;;
35562;SDS011;21665;40.108;18.302;2023-05-07T00:25:00;22.40;;;20.00;;
35562;SDS011;21665;40.108;18.302;2023-05-07T00:27:26;21.50;;;19.30;;
35562;SDS011;21665;40.108;18.302;2023-05-07T00:29:53;21.83;;;19.70;;
35562;SDS011;21665;40.108;18.302;2023-05-07T00:32:19;22.50;;;20.23;;
35562;SDS011;21665;40.108;18.302;2023-05-07T00:34:46;22.17;;;20.17;;
35562;SDS011;21665;40.108;18.302;2023-05-07T00:37:14;22.42;;;20.27;;
35562;SDS011;21665;40.108;18.302;2023-05-07T00:39:40;23.85;;;20.77;;
35562;SDS011;21665;40.108;18.302;2023-05-07T00:42:06;23.42;;;20.27;;
35562;SDS011;21665;40.108;18.302;2023-05-07T00:44:33;23.10;;;20.70;;
35562;SDS011;21665;40.108;18.302;2023-05-07T00:47:01;23.33;;;20.85;;
35562;SDS011;21665;40.108;18.302;2023-05-07T00:49:33;22.23;;;19.98;;
35562;SDS011;21665;40.108;18.302;2023-05-07T00:52:05;22.60;;;20.30;;
35562;SDS011;21665;40.108;18.302;2023-05-07T00:54:32;22.13;;;19.83;;
35562;SDS011;21665;40.108;18.302;2023-05-07T00:57:01;23.13;;;20.73;;
35562;SDS011;21665;40.108;18.302;2023-05-07T00:59:30;23.17;;;20.80;;
35562;SDS011;21665;40.108;18.302;2023-05-07T01:01:58;22.85;;;20.42;;
35562;SDS011;21665;40.108;18.302;2023-05-07T01:04:25;22.35;;;20.00;;
35562;SDS011;21665;40.108;18.302;2023-05-07T01:06:53;21.88;;;19.67;;
35562;SDS011;21665;40.108;18.302;2023-05-07T01:09:22;21.85;;;19.58;;
35562;SDS011;21665;40.108;18.302;2023-05-07T01:11:51;23.08;;;19.83;;
35562;SDS011;21665;40.108;18.302;2023-05-07T01:14:19;21.75;;;19.65;;
35562;SDS011;21665;40.108;18.302;2023-05-07T01:16:47;21.95;;;19.80;;
35562;SDS011;21665;40.108;18.302;2023-05-07T01:19:15;22.52;;;20.08;;
35562;SDS011;21665;40.108;18.302;2023-05-07T01:21:47;20.70;;;18.67;;
35562;SDS011;21665;40.108;18.302;2023-05-07T01:24:17;21.08;;;18.92;;
35562;SDS011;21665;40.108;18.302;2023-05-07T01:26:44;21.98;;;19.67;;
35562;SDS011;21665;40.108;18.302;2023-05-07T01:29:13;21.25;;;18.70;;
35562;SDS011;21665;40.108;18.302;2023-05-07T01:31:40;24.98;;;19.55;;
35562;SDS011;21665;40.108;18.302;2023-05-07T01:34:08;22.13;;;19.15;;
35562;SDS011;21665;40.108;18.302;2023-05-07T01:36:38;22.05;;;19.23;;
35562;SDS011;21665;40.108;18.302;2023-05-07T01:39:08;24.83;;;19.40;;
35562;SDS011;21665;40.108;18.302;2023-05-07T01:41:36;22.33;;;19.45;;
35562;SDS011;21665;40.108;18.302;2023-05-07T01:44:03;23.17;;;18.60;;
35562;SDS011;21665;40.108;18.302;2023-05-07T01:46:31;21.65;;;18.60;;
35562;SDS011;21665;40.108;18.302;2023-05-07T01:48:58;20.40;;;18.30;;
35562;SDS011;21665;40.108;18.302;2023-05-07T01:51:25;25.10;;;19.35;;
35562;SDS011;21665;40.108;18.302;2023-05-07T01:53:52;21.48;;;18.92;;
35562;SDS011;21665;40.108;18.302;2023-05-07T01:56:20;22.60;;;19.20;;
35562;SDS011;21665;40.108;18.302;2023-05-07T01:58:47;28.95;;;19.25;;
35562;SDS011;21665;40.108;18.302;2023-05-07T02:01:14;21.35;;;18.90;;
35562;SDS011;21665;40.108;18.302;2023-05-07T02:03:42;25.52;;;19.05;;
35562;SDS011;21665;40.108;18.302;2023-05-07T02:06:15;24.20;;;19.05;;
35562;SDS011;21665;40.108;18.302;2023-05-07T02:08:42;24.05;;;18.80;;
35562;SDS011;21665;40.108;18.302;2023-05-07T02:11:10;22.80;;;19.17;;
35562;SDS011;21665;40.108;18.302;2023-05-07T02:13:37;25.02;;;19.05;;
35562;SDS011;21665;40.108;18.302;2023-05-07T02:16:03;27.08;;;18.70;;
35562;SDS011;21665;40.108;18.302;2023-05-07T02:18:31;22.20;;;17.92;;
35562;SDS011;21665;40.108;18.302;2023-05-07T02:20:58;25.15;;;19.27;;
35562;SDS011;21665;40.108;18.302;2023-05-07T02:23:24;23.73;;;18.92;;
35562;SDS011;21665;40.108;18.302;2023-05-07T02:25:51;23.50;;;19.77;;
35562;SDS011;21665;40.108;18.302;2023-05-07T02:28:17;27.23;;;18.00;;
35562;SDS011;21665;40.108;18.302;2023-05-07T02:31:03;22.55;;;19.50;;
35562;SDS011;21665;40.108;18.302;2023-05-07T02:33:31;24.25;;;19.27;;
35562;SDS011;21665;40.108;18.302;2023-05-07T02:36:08;26.98;;;19.80;;
35562;SDS011;21665;40.108;18.302;2023-05-07T02:38:55;22.52;;;18.38;;
35562;SDS011;21665;40.108;18.302;2023-05-07T02:41:21;23.13;;;19.50;;
35562;SDS011;21665;40.108;18.302;2023-05-07T02:43:47;25.92;;;19.42;;
35562;SDS011;21665;40.108;18.302;2023-05-07T02:46:14;23.80;;;19.67;;
35562;SDS011;21665;40.108;18.302;2023-05-07T02:48:46;25.73;;;18.35;;
35562;SDS011;21665;40.108;18.302;2023-05-07T02:51:12;23.63;;;18.73;;
35562;SDS011;21665;40.108;18.302;2023-05-07T02:53:41;24.17;;;18.70;;
35562;SDS011;21665;40.108;18.302;2023-05-07T02:56:14;22.48;;;18.27;;
35562;SDS011;21665;40.108;18.302;2023-05-07T02:58:40;24.88;;;18.02;;
35562;SDS011;21665;40.108;18.302;2023-05-07T03:01:11;22.23;;;18.40;;
35562;SDS011;21665;40.108;18.302;2023-05-07T03:03:52;20.70;;;17.80;;
35562;SDS011;21665;40.108;18.302;2023-05-07T03:06:18;22.33;;;18.33;;
35562;SDS011;21665;40.108;18.302;2023-05-07T03:08:44;23.08;;;18.52;;
35562;SDS011;21665;40.108;18.302;2023-05-07T03:11:11;31.55;;;28.67;;
35562;SDS011;21665;40.108;18.302;2023-05-07T03:13:37;26.58;;;19.92;;
35562;SDS011;21665;40.108;18.302;2023-05-07T03:16:04;21.67;;;19.25;;
35562;SDS011;21665;40.108;18.302;2023-05-07T03:18:30;25.88;;;20.70;;
35562;SDS011;21665;40.108;18.302;2023-05-07T03:20:57;21.60;;;19.40;;
35562;SDS011;21665;40.108;18.302;2023-05-07T03:23:26;22.67;;;19.17;;
35562;SDS011;21665;40.108;18.302;2023-05-07T03:25:53;24.88;;;20.10;;
35562;SDS011;21665;40.108;18.302;2023-05-07T03:28:20;22.55;;;19.27;;
35562;SDS011;21665;40.108;18.302;2023-05-07T03:30:52;26.35;;;20.58;;
35562;SDS011;21665;40.108;18.302;2023-05-07T03:33:19;23.52;;;19.77;;
35562;SDS011;21665;40.108;18.302;2023-05-07T03:35:47;26.20;;;19.55;;
35562;SDS011;21665;40.108;18.302;2023-05-07T03:38:19;24.75;;;18.80;;
35562;SDS011;21665;40.108;18.302;2023-05-07T03:40:46;22.33;;;19.30;;
35562;SDS011;21665;40.108;18.302;2023-05-07T03:43:13;21.90;;;19.45;;
35562;SDS011;21665;40.108;18.302;2023-05-07T03:45:44;23.23;;;18.58;;
35562;SDS011;21665;40.108;18.302;2023-05-07T03:48:15;25.02;;;18.45;;
35562;SDS011;21665;40.108;18.302;2023-05-07T03:50:42;25.70;;;18.30;;
35562;SDS011;21665;40.108;18.302;2023-05-07T03:53:09;20.50;;;17.60;;
35562;SDS011;21665;40.108;18.302;2023-05-07T03:55:38;21.88;;;17.83;;
35562;SDS011;21665;40.108;18.302;2023-05-07T03:58:04;18.17;;;16.38;;
35562;SDS011;21665;40.108;18.302;2023-05-07T04:00:31;19.02;;;16.65;;
35562;SDS011;21665;40.108;18.302;2023-05-07T04:03:07;22.42;;;17.52;;
35562;SDS011;21665;40.108;18.302;2023-05-07T04:05:34;26.50;;;18.35;;
35562;SDS011;21665;40.108;18.302;2023-05-07T04:08:02;25.02;;;18.75;;
35562;SDS011;21665;40.108;18.302;2023-05-07T04:10:37;23.23;;;18.90;;
35562;SDS011;21665;40.108;18.302;2023-05-07T04:13:08;21.90;;;19.13;;
35562;SDS011;21665;40.108;18.302;2023-05-07T04:15:35;25.67;;;19.58;;
35562;SDS011;21665;40.108;18.302;2023-05-07T04:18:04;21.17;;;18.52;;
35562;SDS011;21665;40.108;18.302;2023-05-07T04:20:33;21.27;;;18.98;;
35562;SDS011;21665;40.108;18.302;2023-05-07T04:23:04;21.33;;;19.08;;
35562;SDS011;21665;40.108;18.302;2023-05-07T04:25:31;20.88;;;19.00;;
35562;SDS011;21665;40.108;18.302;2023-05-07T04:28:06;21.88;;;19.52;;
35562;SDS011;21665;40.108;18.302;2023-05-07T04:30:33;21.50;;;19.50;;
35562;SDS011;21665;40.108;18.302;2023-05-07T04:33:02;22.27;;;20.20;;
35562;SDS011;21665;40.108;18.302;2023-05-07T04:35:30;23.23;;;19.42;;
35562;SDS011;21665;40.108;18.302;2023-05-07T04:37:58;22.52;;;20.15;;
35562;SDS011;21665;40.108;18.302;2023-05-07T04:40:24;23.02;;;20.77;;
35562;SDS011;21665;40.108;18.302;2023-05-07T04:42:51;25.77;;;21.23;;
35562;SDS011;21665;40.108;18.302;2023-05-07T04:45:19;24.60;;;21.83;;
35562;SDS011;21665;40.108;18.302;2023-05-07T04:47:47;25.73;;;20.88;;
35562;SDS011;21665;40.108;18.302;2023-05-07T04:50:14;22.50;;;20.35;;
35562;SDS011;21665;40.108;18.302;2023-05-07T04:52:42;22.88;;;20.67;;
35562;SDS011;21665;40.108;18.302;2023-05-07T04:55:09;23.35;;;21.38;;
35562;SDS011;21665;40.108;18.302;2023-05-07T04:57:40;23.38;;;21.48;;
35562;SDS011;21665;40.108;18.302;2023-05-07T05:00:09;23.73;;;21.45;;
35562;SDS011;21665;40.108;18.302;2023-05-07T05:02:38;24.02;;;22.13;;
35562;SDS011;21665;40.108;18.302;2023-05-07T05:05:05;27.25;;;24.95;;
35562;SDS011;21665;40.108;18.302;2023-05-07T05:07:31;28.27;;;25.95;;
35562;SDS011;21665;40.108;18.302;2023-05-07T05:09:59;29.48;;;27.08;;
35562;SDS011;21665;40.108;18.302;2023-05-07T05:12:25;30.40;;;27.92;;
35562;SDS011;21665;40.108;18.302;2023-05-07T05:14:52;31.17;;;28.60;;
35562;SDS011;21665;40.108;18.302;2023-05-07T05:17:19;32.20;;;29.42;;
35562;SDS011;21665;40.108;18.302;2023-05-07T05:19:46;31.67;;;29.27;;
35562;SDS011;21665;40.108;18.302;2023-05-07T05:22:12;32.33;;;29.65;;
35562;SDS011;21665;40.108;18.302;2023-05-07T05:24:38;31.70;;;29.40;;
35562;SDS011;21665;40.108;18.302;2023-05-07T05:27:05;32.13;;;29.67;;
35562;SDS011;21665;40.108;18.302;2023-05-07T05:29:32;32.10;;;29.70;;
35562;SDS011;21665;40.108;18.302;2023-05-07T05:31:58;32.53;;;30.23;;
35562;SDS011;21665;40.108;18.302;2023-05-07T05:34:28;32.63;;;30.23;;
35562;SDS011;21665;40.108;18.302;2023-05-07T05:36:55;31.85;;;29.55;;
35562;SDS011;21665;40.108;18.302;2023-05-07T05:39:23;32.33;;;29.90;;
35562;SDS011;21665;40.108;18.302;2023-05-07T05:41:50;31.20;;;29.00;;
35562;SDS011;21665;40.108;18.302;2023-05-07T05:44:16;32.67;;;30.02;;
35562;SDS011;21665;40.108;18.302;2023-05-07T05:46:43;32.38;;;29.98;;
35562;SDS011;21665;40.108;18.302;2023-05-07T05:49:10;32.53;;;30.13;;
35562;SDS011;21665;40.108;18.302;2023-05-07T05:51:37;33.55;;;30.88;;
35562;SDS011;21665;40.108;18.302;2023-05-07T05:54:04;32.38;;;29.88;;
35562;SDS011;21665;40.108;18.302;2023-05-07T05:56:31;33.05;;;30.65;;
35562;SDS011;21665;40.108;18.302;2023-05-07T05:58:58;32.50;;;30.08;;
35562;SDS011;21665;40.108;18.302;2023-05-07T06:01:25;31.65;;;29.50;;
35562;SDS011;21665;40.108;18.302;2023-05-07T06:03:56;31.42;;;29.20;;
35562;SDS011;21665;40.108;18.302;2023-05-07T06:06:23;31.30;;;29.25;;
35562;SDS011;21665;40.108;18.302;2023-05-07T06:08:49;30.55;;;28.65;;
35562;SDS011;21665;40.108;18.302;2023-05-07T06:11:21;32.15;;;29.35;;
35562;SDS011;21665;40.108;18.302;2023-05-07T06:13:49;31.00;;;28.70;;
35562;SDS011;21665;40.108;18.302;2023-05-07T06:16:15;32.05;;;29.75;;
35562;SDS011;21665;40.108;18.302;2023-05-07T06:18:42;32.30;;;29.95;;
35562;SDS011;21665;40.108;18.302;2023-05-07T06:21:09;31.77;;;29.27;;
35562;SDS011;21665;40.108;18.302;2023-05-07T06:23:37;33.65;;;30.75;;
35562;SDS011;21665;40.108;18.302;2023-05-07T06:26:04;32.35;;;29.85;;
35562;SDS011;21665;40.108;18.302;2023-05-07T06:28:36;32.83;;;30.33;;
35562;SDS011;21665;40.108;18.302;2023-05-07T06:31:17;32.50;;;29.95;;
35562;SDS011;21665;40.108;18.302;2023-05-07T06:33:58;33.42;;;30.65;;
35562;SDS011;21665;40.108;18.302;2023-05-07T06:36:31;32.43;;;29.93;;
35562;SDS011;21665;40.108;18.302;2023-05-07T06:39:01;31.30;;;28.98;;
35562;SDS011;21665;40.108;18.302;2023-05-07T06:41:28;29.05;;;27.17;;
35562;SDS011;21665;40.108;18.302;2023-05-07T06:44:00;29.40;;;27.45;;
35562;SDS011;21665;40.108;18.302;2023-05-07T06:46:42;30.13;;;28.13;;
35562;SDS011;21665;40.108;18.302;2023-05-07T06:49:10;30.15;;;28.05;;
35562;SDS011;21665;40.108;18.302;2023-05-07T06:51:40;29.60;;;27.70;;
35562;SDS011;21665;40.108;18.302;2023-05-07T06:54:06;29.30;;;27.42;;
35562;SDS011;21665;40.108;18.302;2023-05-07T06:56:43;29.55;;;27.65;;
35562;SDS011;21665;40.108;18.302;2023-05-07T07:01:42;29.67;;;27.77;;
35562;SDS011;21665;40.108;18.302;2023-05-07T10:35:30;30.27;;;28.38;;
35562;SDS011;21665;40.108;18.302;2023-05-07T10:38:00;29.55;;;27.75;;
35562;SDS011;21665;40.108;18.302;2023-05-07T10:40:30;30.25;;;28.33;;
35562;SDS011;21665;40.108;18.302;2023-05-07T10:42:58;29.73;;;27.73;;
35562;SDS011;21665;40.108;18.302;2023-05-07T10:45:29;29.70;;;27.88;;
35562;SDS011;21665;40.108;18.302;2023-05-07T10:48:09;29.50;;;27.55;;
35562;SDS011;21665;40.108;18.302;2023-05-07T10:50:38;30.35;;;27.98;;
35562;SDS011;21665;40.108;18.302;2023-05-07T10:55:48;29.95;;;27.85;;
35562;SDS011;21665;40.108;18.302;2023-05-07T10:58:41;30.27;;;28.08;;
35562;SDS011;21665;40.108;18.302;2023-05-07T11:01:35;30.00;;;28.00;;
35562;SDS011;21665;40.108;18.302;2023-05-07T11:04:16;30.85;;;28.58;;
35562;SDS011;21665;40.108;18.302;2023-05-07T11:12:52;29.30;;;27.55;;
35562;SDS011;21665;40.108;18.302;2023-05-07T11:15:34;29.67;;;27.88;;
35562;SDS011;21665;40.108;18.302;2023-05-07T11:18:10;29.80;;;27.80;;
35562;SDS011;21665;40.108;18.302;2023-05-07T11:20:46;29.73;;;27.92;;
35562;SDS011;21665;40.108;18.302;2023-05-07T11:26:18;30.17;;;28.27;;
35562;SDS011;21665;40.108;18.302;2023-05-07T11:28:48;30.60;;;28.65;;
35562;SDS011;21665;40.108;18.302;2023-05-07T11:31:23;30.13;;;28.15;;
35562;SDS011;21665;40.108;18.302;2023-05-07T11:33:53;29.35;;;27.45;;
35562;SDS011;21665;40.108;18.302;2023-05-07T11:36:22;29.48;;;27.67;;
35562;SDS011;21665;40.108;18.302;2023-05-07T11:38:51;30.40;;;28.33;;
35562;SDS011;21665;40.108;18.302;2023-05-07T11:41:21;30.02;;;27.98;;
35562;SDS011;21665;40.108;18.302;2023-05-07T11:43:54;29.33;;;27.50;;
35562;SDS011;21665;40.108;18.302;2023-05-07T11:46:24;30.20;;;28.20;;
35562;SDS011;21665;40.108;18.302;2023-05-07T11:48:50;29.35;;;27.45;;
35562;SDS011;21665;40.108;18.302;2023-05-07T11:51:21;30.05;;;28.20;;
35562;SDS011;21665;40.108;18.302;2023-05-07T11:53:51;30.10;;;28.00;;
35562;SDS011;21665;40.108;18.302;2023-05-07T12:05:55;29.98;;;28.00;;
35562;SDS011;21665;40.108;18.302;2023-05-07T12:08:48;29.50;;;27.70;;
35562;SDS011;21665;40.108;18.302;2023-05-07T12:11:29;29.88;;;27.98;;
35562;SDS011;21665;40.108;18.302;2023-05-07T12:29:14;29.23;;;27.42;;
35562;SDS011;21665;40.108;18.302;2023-05-07T12:31:41;29.73;;;27.83;;
35562;SDS011;21665;40.108;18.302;2023-05-07T12:34:10;29.48;;;27.48;;
35562;SDS011;21665;40.108;18.302;2023-05-07T12:36:39;29.90;;;27.90;;
35562;SDS011;21665;40.108;18.302;2023-05-07T12:39:06;30.00;;;28.15;;
35562;SDS011;21665;40.108;18.302;2023-05-07T12:41:54;29.50;;;27.70;;
35562;SDS011;21665;40.108;18.302;2023-05-07T12:44:24;29.65;;;27.73;;
35562;SDS011;21665;40.108;18.302;2023-05-07T12:46:55;29.92;;;27.75;;
35562;SDS011;21665;40.108;18.302;2023-05-07T12:52:14;30.42;;;28.02;;
35562;SDS011;21665;40.108;18.302;2023-05-07T16:42:06;31.15;;;29.25;;
35562;SDS011;21665;40.108;18.302;2023-05-07T16:44:32;31.30;;;29.30;;
35562;SDS011;21665;40.108;18.302;2023-05-07T16:46:59;30.70;;;28.55;;
35562;SDS011;21665;40.108;18.302;2023-05-07T16:49:29;30.67;;;28.77;;
35562;SDS011;21665;40.108;18.302;2023-05-07T16:51:56;30.52;;;28.48;;
35562;SDS011;21665;40.108;18.302;2023-05-07T16:54:22;30.63;;;28.63;;
35562;SDS011;21665;40.108;18.302;2023-05-07T16:56:49;31.17;;;29.00;;
35562;SDS011;21665;40.108;18.302;2023-05-07T16:59:15;29.85;;;27.95;;
35562;SDS011;21665;40.108;18.302;2023-05-07T17:01:42;29.80;;;27.75;;
35562;SDS011;21665;40.108;18.302;2023-05-07T17:04:08;30.25;;;28.15;;
35562;SDS011;21665;40.108;18.302;2023-05-07T17:06:35;28.35;;;26.75;;
35562;SDS011;21665;40.108;18.302;2023-05-07T17:09:01;29.23;;;27.42;;
35562;SDS011;21665;40.108;18.302;2023-05-07T17:11:31;28.83;;;26.98;;
35562;SDS011;21665;40.108;18.302;2023-05-07T17:13:59;28.33;;;26.63;;
35562;SDS011;21665;40.108;18.302;2023-05-07T17:16:26;28.05;;;26.35;;
35562;SDS011;21665;40.108;18.302;2023-05-07T17:18:52;28.40;;;26.60;;
35562;SDS011;21665;40.108;18.302;2023-05-07T17:21:19;27.80;;;26.00;;
35562;SDS011;21665;40.108;18.302;2023-05-07T17:23:48;27.98;;;25.98;;
35562;SDS011;21665;40.108;18.302;2023-05-07T17:26:18;26.65;;;25.05;;
35562;SDS011;21665;40.108;18.302;2023-05-07T17:28:45;26.73;;;24.85;;
35562;SDS011;21665;40.108;18.302;2023-05-07T17:31:12;26.40;;;24.80;;
35562;SDS011;21665;40.108;18.302;2023-05-07T17:33:38;26.58;;;24.70;;
35562;SDS011;21665;40.108;18.302;2023-05-07T17:36:05;26.42;;;24.70;;
35562;SDS011;21665;40.108;18.302;2023-05-07T17:38:33;26.85;;;25.13;;
35562;SDS011;21665;40.108;18.302;2023-05-07T17:41:00;27.00;;;25.20;;
35562;SDS011;21665;40.108;18.302;2023-05-07T17:43:26;26.90;;;25.08;;
35562;SDS011;21665;40.108;18.302;2023-05-07T17:45:53;27.50;;;25.38;;
35562;SDS011;21665;40.108;18.302;2023-05-07T17:48:22;26.73;;;24.95;;
35562;SDS011;21665;40.108;18.302;2023-05-07T17:50:49;26.23;;;24.40;;
35562;SDS011;21665;40.108;18.302;2023-05-07T17:53:15;24.80;;;23.10;;
35562;SDS011;21665;40.108;18.302;2023-05-07T17:55:48;25.00;;;23.35;;
35562;SDS011;21665;40.108;18.302;2023-05-07T17:58:18;24.30;;;22.80;;
35562;SDS011;21665;40.108;18.302;2023-05-07T18:00:44;24.77;;;23.15;;
35562;SDS011;21665;40.108;18.302;2023-05-07T18:03:11;24.85;;;23.25;;
35562;SDS011;21665;40.108;18.302;2023-05-07T18:05:40;24.50;;;22.92;;
35562;SDS011;21665;40.108;18.302;2023-05-07T18:08:07;23.48;;;21.90;;
35562;SDS011;21665;40.108;18.302;2023-05-07T18:10:33;23.85;;;22.35;;
35562;SDS011;21665;40.108;18.302;2023-05-07T18:13:01;23.10;;;21.55;;
35562;SDS011;21665;40.108;18.302;2023-05-07T18:15:31;23.45;;;21.75;;
35562;SDS011;21665;40.108;18.302;2023-05-07T18:17:57;23.42;;;21.83;;
35562;SDS011;21665;40.108;18.302;2023-05-07T18:20:24;23.38;;;21.60;;
35562;SDS011;21665;40.108;18.302;2023-05-07T18:22:50;22.48;;;21.02;;
35562;SDS011;21665;40.108;18.302;2023-05-07T18:25:17;23.35;;;21.75;;
35562;SDS011;21665;40.108;18.302;2023-05-07T18:27:43;24.13;;;22.02;;
35562;SDS011;21665;40.108;18.302;2023-05-07T18:30:10;23.85;;;22.05;;
35562;SDS011;21665;40.108;18.302;2023-05-07T18:32:36;23.88;;;22.08;;
35562;SDS011;21665;40.108;18.302;2023-05-07T18:35:03;23.08;;;21.48;;
35562;SDS011;21665;40.108;18.302;2023-05-07T18:37:30;24.55;;;22.33;;
35562;SDS011;21665;40.108;18.302;2023-05-07T18:39:56;24.42;;;22.30;;
35562;SDS011;21665;40.108;18.302;2023-05-07T18:42:26;24.27;;;22.35;;
35562;SDS011;21665;40.108;18.302;2023-05-07T18:44:53;25.58;;;22.92;;
35562;SDS011;21665;40.108;18.302;2023-05-07T18:47:20;25.80;;;23.60;;
35562;SDS011;21665;40.108;18.302;2023-05-07T18:49:46;23.95;;;22.25;;
35562;SDS011;21665;40.108;18.302;2023-05-07T18:52:12;24.98;;;23.08;;
35562;SDS011;21665;40.108;18.302;2023-05-07T18:55:14;25.08;;;23.02;;
35562;SDS011;21665;40.108;18.302;2023-05-07T18:57:41;25.88;;;23.45;;
35562;SDS011;21665;40.108;18.302;2023-05-07T19:07:16;24.75;;;22.77;;
35562;SDS011;21665;40.108;18.302;2023-05-07T19:10:54;25.83;;;23.63;;
35562;SDS011;21665;40.108;18.302;2023-05-07T19:13:27;25.88;;;23.52;;
35562;SDS011;21665;40.108;18.302;2023-05-07T19:15:55;25.27;;;23.27;;
35562;SDS011;21665;40.108;18.302;2023-05-07T19:18:25;25.48;;;23.15;;
35562;SDS011;21665;40.108;18.302;2023-05-07T19:21:24;25.02;;;23.08;;
35562;SDS011;21665;40.108;18.302;2023-05-07T19:23:55;24.83;;;22.95;;
35562;SDS011;21665;40.108;18.302;2023-05-07T19:26:28;25.45;;;23.17;;
35562;SDS011;21665;40.108;18.302;2023-05-07T19:28:54;25.40;;;23.27;;
35562;SDS011;21665;40.108;18.302;2023-05-07T19:31:22;25.05;;;23.05;;
35562;SDS011;21665;40.108;18.302;2023-05-07T19:33:55;25.63;;;23.00;;
35562;SDS011;21665;40.108;18.302;2023-05-07T19:36:22;25.33;;;22.77;;
35562;SDS011;21665;40.108;18.302;2023-05-07T19:38:53;25.02;;;22.90;;
35562;SDS011;21665;40.108;18.302;2023-05-07T19:41:20;24.85;;;22.77;;
35562;SDS011;21665;40.108;18.302;2023-05-07T20:39:38;22.00;;;19.88;;
35562;SDS011;21665;40.108;18.302;2023-05-07T21:50:10;22.65;;;19.67;;
35562;SDS011;21665;40.108;18.302;2023-05-07T21:52:37;22.38;;;20.02;;
35562;SDS011;21665;40.108;18.302;2023-05-07T21:55:10;23.00;;;19.90;;
35562;SDS011;21665;40.108;18.302;2023-05-07T21:57:39;22.23;;;19.92;;
35562;SDS011;21665;40.108;18.302;2023-05-07T22:00:09;23.05;;;19.77;;
35562;SDS011;21665;40.108;18.302;2023-05-07T22:02:42;26.30;;;20.45;;
35562;SDS011;21665;40.108;18.302;2023-05-07T22:05:08;23.33;;;19.33;;
35562;SDS011;21665;40.108;18.302;2023-05-07T22:07:41;32.55;;;21.13;;
35562;SDS011;21665;40.108;18.302;2023-05-07T22:10:07;23.67;;;19.73;;
